createdAt,value
2018-05-24T00:00:55.558Z,26.17
2018-05-24T00:05:28.793Z,26.40
2018-05-24T00:10:02.722Z,24.08
2018-05-24T00:14:36.745Z,25.50
2018-05-24T00:19:10.706Z,26.25
2018-05-24T00:23:44.062Z,24.58
2018-05-24T00:28:17.254Z,27.17
2018-05-24T00:32:50.491Z,26.45
2018-05-24T00:37:24.429Z,26.95
2018-05-24T00:41:57.617Z,29.10
2018-05-24T00:46:31.605Z,24.98
2018-05-24T00:51:04.794Z,24.05
2018-05-24T00:55:41.034Z,24.60
2018-05-24T01:00:14.991Z,24.95
2018-05-24T01:04:48.179Z,24.87
2018-05-24T01:09:21.374Z,25.23
2018-05-24T01:13:55.422Z,23.08
2018-05-24T01:18:28.613Z,21.58
2018-05-24T01:23:01.806Z,20.80
2018-05-24T01:27:35.787Z,20.50
2018-05-24T01:32:09.006Z,24.05
2018-05-24T01:36:54.241Z,21.00
2018-05-24T01:41:27.411Z,22.30
2018-05-24T01:46:00.637Z,23.23
2018-05-24T01:50:34.621Z,22.90
2018-05-24T01:55:07.837Z,21.85
2018-05-24T01:59:41.030Z,24.23
2018-05-24T02:04:14.238Z,24.05
2018-05-24T02:08:47.427Z,22.30
2018-05-24T02:13:20.619Z,22.73
2018-05-24T02:17:53.930Z,22.55
2018-05-24T02:22:27.146Z,22.95
2018-05-24T02:27:00.365Z,24.45
2018-05-24T02:31:33.562Z,24.90
2018-05-24T02:36:06.983Z,23.65
2018-05-24T02:40:40.938Z,22.50
2018-05-24T02:45:14.168Z,21.80
2018-05-24T02:49:48.131Z,27.45
2018-05-24T02:54:21.350Z,22.23
2018-05-24T02:58:54.566Z,25.25
2018-05-24T03:03:27.739Z,23.90
2018-05-24T03:08:00.958Z,23.48
2018-05-24T03:12:34.150Z,22.30
2018-05-24T03:17:07.367Z,23.02
2018-05-24T03:21:40.566Z,24.55
2018-05-24T03:26:13.757Z,22.83
2018-05-24T03:30:47.702Z,24.77
2018-05-24T03:35:21.000Z,25.55
2018-05-24T03:39:54.250Z,27.27
2018-05-24T03:44:27.470Z,23.08
2018-05-24T03:49:00.660Z,25.02
2018-05-24T03:53:33.935Z,24.67
2018-05-24T03:58:07.065Z,22.60
2018-05-24T04:02:52.303Z,21.50
2018-05-24T04:07:26.290Z,21.00
2018-05-24T04:11:59.597Z,22.95
2018-05-24T04:16:33.733Z,23.02
2018-05-24T04:21:06.931Z,22.95
2018-05-24T04:25:40.173Z,24.73
2018-05-24T04:30:14.111Z,23.73
2018-05-24T04:34:48.094Z,22.65
2018-05-24T04:39:21.306Z,21.80
2018-05-24T04:43:54.542Z,22.23
2018-05-24T04:48:28.522Z,21.55
2018-05-24T04:53:01.739Z,19.83
2018-05-24T04:57:35.734Z,22.08
2018-05-24T05:02:08.951Z,22.62
2018-05-24T05:06:42.147Z,22.83
2018-05-24T05:11:15.370Z,30.58
2018-05-24T05:15:48.586Z,28.27
2018-05-24T05:20:21.749Z,27.77
2018-05-24T05:24:54.942Z,27.95
2018-05-24T05:29:28.897Z,27.85
2018-05-24T05:34:02.193Z,26.85
2018-05-24T05:38:35.413Z,27.33
2018-05-24T05:43:08.701Z,24.17
2018-05-24T05:47:41.883Z,24.85
2018-05-24T05:52:15.070Z,25.95
2018-05-24T05:56:48.263Z,26.25
2018-05-24T06:01:21.478Z,27.08
2018-05-24T06:05:54.674Z,27.37
2018-05-24T06:10:27.970Z,25.88
2018-05-24T06:15:01.195Z,26.55
2018-05-24T06:19:34.362Z,26.67
2018-05-24T06:24:07.582Z,25.30
2018-05-24T06:28:40.802Z,27.55
2018-05-24T06:33:14.038Z,23.02
2018-05-24T06:37:47.250Z,23.17
2018-05-24T06:42:20.472Z,23.70
2018-05-24T06:46:54.454Z,24.12
2018-05-24T06:51:27.678Z,25.05
2018-05-24T06:56:00.873Z,26.40
2018-05-24T07:00:34.863Z,25.67
2018-05-24T07:05:08.356Z,25.95
2018-05-24T07:09:42.312Z,26.62
2018-05-24T07:14:15.525Z,25.83
2018-05-24T07:18:48.721Z,25.33
2018-05-24T07:23:22.214Z,26.45
2018-05-24T07:27:55.463Z,25.27
2018-05-24T07:32:28.654Z,25.75
2018-05-24T07:37:01.853Z,24.80
2018-05-24T07:41:35.046Z,25.10
2018-05-24T07:46:08.234Z,25.02
2018-05-24T07:50:42.478Z,23.35
2018-05-24T07:55:15.768Z,24.15
2018-05-24T07:59:49.787Z,24.37
2018-05-24T08:04:23.785Z,24.15
2018-05-24T08:08:58.538Z,22.05
2018-05-24T08:13:32.336Z,21.73
2018-05-24T08:18:05.977Z,21.37
2018-05-24T08:22:39.198Z,20.25
2018-05-24T08:27:13.158Z,21.48
2018-05-24T08:31:46.441Z,20.77
2018-05-24T08:36:20.425Z,21.83
2018-05-24T08:40:53.679Z,22.27
2018-05-24T08:45:26.823Z,21.70
2018-05-24T08:50:00.017Z,20.67
2018-05-24T08:54:33.241Z,17.98
2018-05-24T08:59:06.445Z,20.27
2018-05-24T09:03:39.638Z,19.15
2018-05-24T09:08:12.829Z,19.62
2018-05-24T09:12:46.048Z,19.45
2018-05-24T09:17:19.242Z,18.67
2018-05-24T09:21:52.492Z,20.25
2018-05-24T09:26:25.746Z,18.77
2018-05-24T09:30:59.994Z,17.08
2018-05-24T09:35:33.187Z,16.58
2018-05-24T09:40:07.150Z,17.00
2018-05-24T09:44:40.369Z,15.68
2018-05-24T09:49:13.575Z,14.80
2018-05-24T09:53:46.772Z,15.10
2018-05-24T09:58:19.998Z,15.10
2018-05-24T10:02:53.166Z,15.57
2018-05-24T10:07:26.388Z,14.50
2018-05-24T10:11:59.586Z,14.10
2018-05-24T10:16:32.849Z,14.13
2018-05-24T10:21:06.032Z,14.05
2018-05-24T10:25:39.249Z,14.68
2018-05-24T10:30:12.450Z,14.60
2018-05-24T10:34:45.681Z,15.23
2018-05-24T10:39:19.639Z,13.65
2018-05-24T10:43:53.339Z,13.35
2018-05-24T10:48:26.530Z,13.73
2018-05-24T10:53:00.488Z,13.98
2018-05-24T10:57:33.860Z,15.30
2018-05-24T11:02:07.819Z,15.00
2018-05-24T11:06:41.041Z,13.68
2018-05-24T11:11:14.209Z,12.63
2018-05-24T11:15:48.196Z,11.50
2018-05-24T11:20:21.502Z,10.45
2018-05-24T11:24:54.693Z,10.27
2018-05-24T11:29:27.881Z,9.43
2018-05-24T11:34:01.157Z,9.65
2018-05-24T11:38:35.194Z,9.40
2018-05-24T11:43:09.225Z,8.70
2018-05-24T11:47:42.370Z,8.25
2018-05-24T11:52:15.611Z,8.63
2018-05-24T11:56:48.932Z,8.73
2018-05-24T12:01:22.911Z,7.78
2018-05-24T12:05:56.127Z,7.97
2018-05-24T12:10:29.346Z,8.63
2018-05-24T12:15:04.040Z,8.98
2018-05-24T12:19:37.260Z,8.75
2018-05-24T12:24:23.252Z,9.10
2018-05-24T12:28:59.219Z,7.93
2018-05-24T12:33:32.632Z,7.32
2018-05-24T12:38:05.827Z,8.30
2018-05-24T12:42:39.803Z,8.07
2018-05-24T12:47:12.987Z,7.70
2018-05-24T12:51:46.177Z,9.18
2018-05-24T12:56:19.374Z,9.02
2018-05-24T13:00:52.586Z,9.35
2018-05-24T13:05:25.837Z,9.23
2018-05-24T13:09:59.054Z,9.65
2018-05-24T13:14:32.255Z,9.57
2018-05-24T13:19:05.418Z,8.80
2018-05-24T13:23:38.627Z,8.20
2018-05-24T13:28:11.806Z,7.45
2018-05-24T13:32:45.799Z,7.10
2018-05-24T13:37:19.139Z,7.40
2018-05-24T13:41:53.622Z,6.20
2018-05-24T13:46:28.948Z,6.30
2018-05-24T13:51:02.790Z,6.70
2018-05-24T13:55:36.059Z,6.10
2018-05-24T14:00:09.580Z,6.25
2018-05-24T14:04:43.649Z,5.78
2018-05-24T14:09:17.035Z,6.20
2018-05-24T14:13:51.381Z,6.35
2018-05-24T14:18:24.703Z,6.70
2018-05-24T14:22:58.290Z,7.00
2018-05-24T14:27:31.693Z,7.80
2018-05-24T14:32:05.668Z,7.30
2018-05-24T14:36:38.870Z,7.25
2018-05-24T14:41:12.089Z,8.15
2018-05-24T14:45:45.785Z,7.70
2018-05-24T14:50:19.046Z,8.55
2018-05-24T14:54:53.550Z,8.52
2018-05-24T14:59:26.762Z,9.45
2018-05-24T15:03:59.968Z,9.65
2018-05-24T15:08:33.162Z,9.63
2018-05-24T15:13:06.402Z,7.62
2018-05-24T15:17:39.590Z,8.48
2018-05-24T15:22:13.638Z,10.38
2018-05-24T15:26:47.594Z,9.40
2018-05-24T15:31:20.828Z,11.43
2018-05-24T15:35:54.022Z,13.52
2018-05-24T15:40:27.219Z,11.95
2018-05-24T15:45:00.397Z,12.85
2018-05-24T15:49:34.394Z,15.02
2018-05-24T15:54:08.398Z,11.73
2018-05-24T15:58:41.610Z,8.93
2018-05-24T16:03:14.802Z,6.30
2018-05-24T16:07:47.985Z,8.13
2018-05-24T16:12:21.206Z,12.32
2018-05-24T16:16:54.458Z,10.88
2018-05-24T16:21:27.690Z,9.50
2018-05-24T16:26:01.627Z,13.45
2018-05-24T16:30:34.940Z,13.77
2018-05-24T16:35:08.257Z,12.20
2018-05-24T16:39:41.418Z,9.63
2018-05-24T16:44:14.857Z,10.23
2018-05-24T16:48:48.808Z,8.45
2018-05-24T16:53:21.971Z,9.43
2018-05-24T16:57:56.005Z,9.38
2018-05-24T17:02:30.143Z,9.38
2018-05-24T17:07:04.099Z,8.18
2018-05-24T17:11:37.310Z,7.12
2018-05-24T17:16:10.694Z,7.28
2018-05-24T17:20:43.888Z,6.30
2018-05-24T17:25:17.865Z,6.10
2018-05-24T17:29:51.090Z,5.80
2018-05-24T17:34:25.209Z,4.60
2018-05-24T17:38:58.426Z,6.72
2018-05-24T17:43:33.309Z,5.32
2018-05-24T17:48:07.967Z,6.90
2018-05-24T17:52:41.166Z,6.37
2018-05-24T17:57:14.356Z,5.93
2018-05-24T18:01:47.541Z,6.25
2018-05-24T18:06:21.593Z,6.62
2018-05-24T18:10:54.918Z,4.95
2018-05-24T18:15:28.143Z,4.37
2018-05-24T18:20:01.350Z,4.12
2018-05-24T18:24:34.564Z,5.45
2018-05-24T18:29:07.985Z,5.45
2018-05-24T18:33:41.171Z,5.95
2018-05-24T18:38:14.509Z,7.15
2018-05-24T18:42:47.763Z,7.62
2018-05-24T18:47:20.949Z,8.45
2018-05-24T18:51:54.937Z,9.70
2018-05-24T18:56:28.181Z,9.60
2018-05-24T19:01:02.207Z,9.65
2018-05-24T19:05:36.182Z,10.98
2018-05-24T19:10:09.350Z,10.60
2018-05-24T19:14:42.614Z,14.40
2018-05-24T19:19:16.070Z,12.85
2018-05-24T19:23:49.915Z,10.80
2018-05-24T19:28:23.243Z,10.45
2018-05-24T19:32:56.487Z,11.98
2018-05-24T19:37:30.422Z,10.60
2018-05-24T19:42:04.399Z,11.23
2018-05-24T19:46:37.786Z,20.33
2018-05-24T19:51:11.019Z,11.52
2018-05-24T19:55:44.280Z,13.73
2018-05-24T20:00:19.198Z,14.80
2018-05-24T20:04:53.579Z,14.02
2018-05-24T20:09:27.302Z,13.13
2018-05-24T20:14:01.753Z,13.18
2018-05-24T20:18:35.561Z,12.70
2018-05-24T20:23:09.276Z,15.38
2018-05-24T20:27:42.891Z,14.35
2018-05-24T20:32:16.502Z,14.38
2018-05-24T20:36:50.116Z,15.88
2018-05-24T20:41:23.730Z,15.60
2018-05-24T20:45:56.949Z,16.42
2018-05-24T20:50:30.153Z,18.42
2018-05-24T20:55:03.388Z,19.27
2018-05-24T20:59:36.592Z,15.05
2018-05-24T21:04:09.851Z,15.63
2018-05-24T21:08:43.282Z,15.55
2018-05-24T21:13:16.455Z,17.25
2018-05-24T21:17:50.414Z,16.25
2018-05-24T21:22:23.614Z,15.45
2018-05-24T21:26:56.816Z,14.90
2018-05-24T21:31:30.007Z,14.07
2018-05-24T21:36:03.963Z,15.98
2018-05-24T21:40:37.228Z,14.52
2018-05-24T21:45:11.158Z,14.68
2018-05-24T21:49:45.117Z,15.98
2018-05-24T21:54:18.309Z,16.77
2018-05-24T21:58:51.507Z,16.65
2018-05-24T22:03:24.721Z,17.17
2018-05-24T22:07:58.002Z,17.15
2018-05-24T22:12:32.012Z,19.40
2018-05-24T22:17:05.234Z,18.42
2018-05-24T22:21:39.222Z,16.87
2018-05-24T22:26:12.421Z,15.82
2018-05-24T22:30:45.582Z,15.88
2018-05-24T22:35:19.537Z,16.40
2018-05-24T22:39:52.734Z,15.38
2018-05-24T22:44:25.958Z,15.25
2018-05-24T22:48:59.154Z,15.00
2018-05-24T22:53:32.406Z,14.30
2018-05-24T22:58:06.422Z,14.50
2018-05-24T23:02:39.633Z,13.27
2018-05-24T23:07:12.810Z,11.55
2018-05-24T23:11:46.073Z,10.45
2018-05-24T23:16:20.007Z,10.30
2018-05-24T23:20:53.961Z,12.02
2018-05-24T23:25:27.219Z,10.77
2018-05-24T23:30:00.418Z,10.00
2018-05-24T23:34:33.611Z,10.82
2018-05-24T23:39:06.826Z,11.73
2018-05-24T23:43:40.057Z,10.60
2018-05-24T23:48:13.986Z,12.13
2018-05-24T23:52:47.946Z,14.23
2018-05-24T23:57:21.177Z,15.30
